sensor_id;sensor_type;location;lat;lon;timestamp;P1;durP1;ratioP1;P2;durP2;ratioP2
7823;SDS011;3957;48.61947800;9.05303100;2023-08-06T00:00:58;1.98;;;1.80;;
7823;SDS011;3957;48.61947800;9.05303100;2023-08-06T00:02:00;1.70;;;1.60;;
7823;SDS011;3957;48.61947800;9.05303100;2023-08-06T00:03:01;1.85;;;1.45;;
7823;SDS011;3957;48.61947800;9.05303100;2023-08-06T00:04:03;2.38;;;1.98;;
7823;SDS011;3957;48.61947800;9.05303100;2023-08-06T00:05:05;2.28;;;1.63;;
7823;SDS011;3957;48.61947800;9.05303100;2023-08-06T00:06:06;2.20;;;1.70;;
7823;SDS011;3957;48.61947800;9.05303100;2023-08-06T00:07:08;1.75;;;1.60;;
7823;SDS011;3957;48.61947800;9.05303100;2023-08-06T00:08:09;1.98;;;1.77;;
7823;SDS011;3957;48.61947800;9.05303100;2023-08-06T00:09:11;4.80;;;2.03;;
7823;SDS011;3957;48.61947800;9.05303100;2023-08-06T00:10:13;2.03;;;1.83;;
7823;SDS011;3957;48.61947800;9.05303100;2023-08-06T00:11:15;1.75;;;1.65;;
7823;SDS011;3957;48.61947800;9.05303100;2023-08-06T00:12:17;2.20;;;1.90;;
7823;SDS011;3957;48.61947800;9.05303100;2023-08-06T00:13:19;2.83;;;1.80;;
7823;SDS011;3957;48.61947800;9.05303100;2023-08-06T00:14:20;2.92;;;1.90;;
7823;SDS011;3957;48.61947800;9.05303100;2023-08-06T00:15:22;2.20;;;1.80;;
7823;SDS011;3957;48.61947800;9.05303100;2023-08-06T00:16:23;2.90;;;1.90;;
7823;SDS011;3957;48.61947800;9.05303100;2023-08-06T00:17:25;4.63;;;2.00;;
7823;SDS011;3957;48.61947800;9.05303100;2023-08-06T00:18:26;2.13;;;1.85;;
7823;SDS011;3957;48.61947800;9.05303100;2023-08-06T00:19:28;3.53;;;2.00;;
7823;SDS011;3957;48.61947800;9.05303100;2023-08-06T00:20:30;3.30;;;1.77;;
7823;SDS011;3957;48.61947800;9.05303100;2023-08-06T00:21:31;2.22;;;1.88;;
7823;SDS011;3957;48.61947800;9.05303100;2023-08-06T00:22:33;4.53;;;1.98;;
7823;SDS011;3957;48.61947800;9.05303100;2023-08-06T00:23:35;2.42;;;1.85;;
7823;SDS011;3957;48.61947800;9.05303100;2023-08-06T00:24:37;1.95;;;1.65;;
7823;SDS011;3957;48.61947800;9.05303100;2023-08-06T00:25:39;4.95;;;2.00;;
7823;SDS011;3957;48.61947800;9.05303100;2023-08-06T00:26:40;3.17;;;2.00;;
7823;SDS011;3957;48.61947800;9.05303100;2023-08-06T00:27:42;3.00;;;2.10;;
7823;SDS011;3957;48.61947800;9.05303100;2023-08-06T00:28:43;2.97;;;1.92;;
7823;SDS011;3957;48.61947800;9.05303100;2023-08-06T00:29:44;1.80;;;1.70;;
7823;SDS011;3957;48.61947800;9.05303100;2023-08-06T00:30:46;3.35;;;2.25;;
7823;SDS011;3957;48.61947800;9.05303100;2023-08-06T00:31:47;2.55;;;2.13;;
7823;SDS011;3957;48.61947800;9.05303100;2023-08-06T00:32:49;2.25;;;2.05;;
7823;SDS011;3957;48.61947800;9.05303100;2023-08-06T00:33:51;3.30;;;2.00;;
7823;SDS011;3957;48.61947800;9.05303100;2023-08-06T00:34:52;2.13;;;1.92;;
7823;SDS011;3957;48.61947800;9.05303100;2023-08-06T00:35:54;4.68;;;2.05;;
7823;SDS011;3957;48.61947800;9.05303100;2023-08-06T00:36:55;2.20;;;2.00;;
7823;SDS011;3957;48.61947800;9.05303100;2023-08-06T00:37:57;2.25;;;2.05;;
7823;SDS011;3957;48.61947800;9.05303100;2023-08-06T00:38:58;3.73;;;2.30;;
7823;SDS011;3957;48.61947800;9.05303100;2023-08-06T00:40:00;5.32;;;2.10;;
7823;SDS011;3957;48.61947800;9.05303100;2023-08-06T00:41:01;2.25;;;1.70;;
7823;SDS011;3957;48.61947800;9.05303100;2023-08-06T00:42:03;2.35;;;1.85;;
7823;SDS011;3957;48.61947800;9.05303100;2023-08-06T00:43:05;5.10;;;2.10;;
7823;SDS011;3957;48.61947800;9.05303100;2023-08-06T00:44:06;2.00;;;1.80;;
7823;SDS011;3957;48.61947800;9.05303100;2023-08-06T00:45:08;3.42;;;1.90;;
7823;SDS011;3957;48.61947800;9.05303100;2023-08-06T00:46:10;2.20;;;2.00;;
7823;SDS011;3957;48.61947800;9.05303100;2023-08-06T00:47:11;3.60;;;2.45;;
7823;SDS011;3957;48.61947800;9.05303100;2023-08-06T00:48:13;3.60;;;2.20;;
7823;SDS011;3957;48.61947800;9.05303100;2023-08-06T00:49:15;3.85;;;1.95;;
7823;SDS011;3957;48.61947800;9.05303100;2023-08-06T00:50:17;2.90;;;2.13;;
7823;SDS011;3957;48.61947800;9.05303100;2023-08-06T00:51:19;3.45;;;2.08;;
7823;SDS011;3957;48.61947800;9.05303100;2023-08-06T00:52:21;2.13;;;1.92;;
7823;SDS011;3957;48.61947800;9.05303100;2023-08-06T00:53:23;2.13;;;1.80;;
7823;SDS011;3957;48.61947800;9.05303100;2023-08-06T00:54:25;3.93;;;2.13;;
7823;SDS011;3957;48.61947800;9.05303100;2023-08-06T00:55:29;2.13;;;1.70;;
7823;SDS011;3957;48.61947800;9.05303100;2023-08-06T00:56:32;2.53;;;2.00;;
7823;SDS011;3957;48.61947800;9.05303100;2023-08-06T00:57:37;2.35;;;1.65;;
7823;SDS011;3957;48.61947800;9.05303100;2023-08-06T00:58:38;2.30;;;1.90;;
7823;SDS011;3957;48.61947800;9.05303100;2023-08-06T00:59:40;3.03;;;2.00;;
7823;SDS011;3957;48.61947800;9.05303100;2023-08-06T01:00:42;2.60;;;2.10;;
7823;SDS011;3957;48.61947800;9.05303100;2023-08-06T01:01:44;3.65;;;2.22;;
7823;SDS011;3957;48.61947800;9.05303100;2023-08-06T01:02:47;2.75;;;1.80;;
7823;SDS011;3957;48.61947800;9.05303100;2023-08-06T01:03:50;3.75;;;2.08;;
7823;SDS011;3957;48.61947800;9.05303100;2023-08-06T01:04:52;2.40;;;2.10;;
7823;SDS011;3957;48.61947800;9.05303100;2023-08-06T01:05:53;2.00;;;1.80;;
7823;SDS011;3957;48.61947800;9.05303100;2023-08-06T01:11:33;5.20;;;1.92;;
7823;SDS011;3957;48.61947800;9.05303100;2023-08-06T01:14:28;2.40;;;1.70;;
7823;SDS011;3957;48.61947800;9.05303100;2023-08-06T01:15:40;3.20;;;2.20;;
7823;SDS011;3957;48.61947800;9.05303100;2023-08-06T01:16:45;2.00;;;1.80;;
7823;SDS011;3957;48.61947800;9.05303100;2023-08-06T01:17:47;1.90;;;1.80;;
7823;SDS011;3957;48.61947800;9.05303100;2023-08-06T01:18:49;4.43;;;1.90;;
7823;SDS011;3957;48.61947800;9.05303100;2023-08-06T01:19:51;2.70;;;1.73;;
7823;SDS011;3957;48.61947800;9.05303100;2023-08-06T01:20:53;3.78;;;2.35;;
7823;SDS011;3957;48.61947800;9.05303100;2023-08-06T01:21:55;2.10;;;1.70;;
7823;SDS011;3957;48.61947800;9.05303100;2023-08-06T01:22:57;2.83;;;2.10;;
7823;SDS011;3957;48.61947800;9.05303100;2023-08-06T01:23:58;3.08;;;1.75;;
7823;SDS011;3957;48.61947800;9.05303100;2023-08-06T01:25:00;3.20;;;2.40;;
7823;SDS011;3957;48.61947800;9.05303100;2023-08-06T01:27:33;2.67;;;1.73;;
7823;SDS011;3957;48.61947800;9.05303100;2023-08-06T01:28:56;2.33;;;2.03;;
7823;SDS011;3957;48.61947800;9.05303100;2023-08-06T01:31:24;2.05;;;1.83;;
7823;SDS011;3957;48.61947800;9.05303100;2023-08-06T01:32:29;2.25;;;2.00;;
7823;SDS011;3957;48.61947800;9.05303100;2023-08-06T01:33:33;2.13;;;1.90;;
7823;SDS011;3957;48.61947800;9.05303100;2023-08-06T01:34:36;2.53;;;1.80;;
7823;SDS011;3957;48.61947800;9.05303100;2023-08-06T01:35:41;3.08;;;1.70;;
7823;SDS011;3957;48.61947800;9.05303100;2023-08-06T01:36:43;3.70;;;1.95;;
7823;SDS011;3957;48.61947800;9.05303100;2023-08-06T01:37:46;4.22;;;2.30;;
7823;SDS011;3957;48.61947800;9.05303100;2023-08-06T01:38:50;1.90;;;1.80;;
7823;SDS011;3957;48.61947800;9.05303100;2023-08-06T01:39:53;2.72;;;1.80;;
7823;SDS011;3957;48.61947800;9.05303100;2023-08-06T01:40:55;3.78;;;1.73;;
7823;SDS011;3957;48.61947800;9.05303100;2023-08-06T01:41:56;2.97;;;1.55;;
7823;SDS011;3957;48.61947800;9.05303100;2023-08-06T01:42:58;3.75;;;2.10;;
7823;SDS011;3957;48.61947800;9.05303100;2023-08-06T01:44:00;4.28;;;1.83;;
7823;SDS011;3957;48.61947800;9.05303100;2023-08-06T01:45:01;4.70;;;1.90;;
7823;SDS011;3957;48.61947800;9.05303100;2023-08-06T01:46:03;2.00;;;1.80;;
7823;SDS011;3957;48.61947800;9.05303100;2023-08-06T01:47:04;2.95;;;1.80;;
7823;SDS011;3957;48.61947800;9.05303100;2023-08-06T01:48:06;1.90;;;1.70;;
7823;SDS011;3957;48.61947800;9.05303100;2023-08-06T01:49:08;2.78;;;1.88;;
7823;SDS011;3957;48.61947800;9.05303100;2023-08-06T01:50:10;1.73;;;1.60;;
7823;SDS011;3957;48.61947800;9.05303100;2023-08-06T01:51:11;2.38;;;1.90;;
7823;SDS011;3957;48.61947800;9.05303100;2023-08-06T01:52:13;2.47;;;1.67;;
7823;SDS011;3957;48.61947800;9.05303100;2023-08-06T01:53:15;2.80;;;1.70;;
7823;SDS011;3957;48.61947800;9.05303100;2023-08-06T01:54:16;4.38;;;1.70;;
7823;SDS011;3957;48.61947800;9.05303100;2023-08-06T01:55:18;2.53;;;1.98;;
7823;SDS011;3957;48.61947800;9.05303100;2023-08-06T01:56:20;4.50;;;1.63;;
7823;SDS011;3957;48.61947800;9.05303100;2023-08-06T01:57:22;1.92;;;1.67;;
7823;SDS011;3957;48.61947800;9.05303100;2023-08-06T01:58:24;1.67;;;1.58;;
7823;SDS011;3957;48.61947800;9.05303100;2023-08-06T01:59:25;2.28;;;1.92;;
7823;SDS011;3957;48.61947800;9.05303100;2023-08-06T02:00:27;2.70;;;1.50;;
7823;SDS011;3957;48.61947800;9.05303100;2023-08-06T02:01:30;2.15;;;1.90;;
7823;SDS011;3957;48.61947800;9.05303100;2023-08-06T02:02:31;1.85;;;1.63;;
7823;SDS011;3957;48.61947800;9.05303100;2023-08-06T02:03:33;2.13;;;1.70;;
7823;SDS011;3957;48.61947800;9.05303100;2023-08-06T02:04:34;1.95;;;1.55;;
7823;SDS011;3957;48.61947800;9.05303100;2023-08-06T02:05:36;3.73;;;1.70;;
7823;SDS011;3957;48.61947800;9.05303100;2023-08-06T02:06:38;2.30;;;1.60;;
7823;SDS011;3957;48.61947800;9.05303100;2023-08-06T02:07:41;3.70;;;1.90;;
7823;SDS011;3957;48.61947800;9.05303100;2023-08-06T02:08:43;1.83;;;1.70;;
7823;SDS011;3957;48.61947800;9.05303100;2023-08-06T02:09:44;3.25;;;1.70;;
7823;SDS011;3957;48.61947800;9.05303100;2023-08-06T02:10:46;3.20;;;1.70;;
7823;SDS011;3957;48.61947800;9.05303100;2023-08-06T02:11:47;2.22;;;1.95;;
7823;SDS011;3957;48.61947800;9.05303100;2023-08-06T02:12:49;2.65;;;1.70;;
7823;SDS011;3957;48.61947800;9.05303100;2023-08-06T02:13:50;4.88;;;2.03;;
7823;SDS011;3957;48.61947800;9.05303100;2023-08-06T02:14:53;2.60;;;1.63;;
7823;SDS011;3957;48.61947800;9.05303100;2023-08-06T02:15:54;1.50;;;1.40;;
7823;SDS011;3957;48.61947800;9.05303100;2023-08-06T02:16:56;2.22;;;1.98;;
7823;SDS011;3957;48.61947800;9.05303100;2023-08-06T02:17:59;3.58;;;2.10;;
7823;SDS011;3957;48.61947800;9.05303100;2023-08-06T02:19:01;1.98;;;1.60;;
7823;SDS011;3957;48.61947800;9.05303100;2023-08-06T02:20:02;3.05;;;1.52;;
7823;SDS011;3957;48.61947800;9.05303100;2023-08-06T02:21:04;2.40;;;1.67;;
7823;SDS011;3957;48.61947800;9.05303100;2023-08-06T02:22:05;2.78;;;1.60;;
7823;SDS011;3957;48.61947800;9.05303100;2023-08-06T02:23:07;2.72;;;1.73;;
7823;SDS011;3957;48.61947800;9.05303100;2023-08-06T02:24:09;2.88;;;1.65;;
7823;SDS011;3957;48.61947800;9.05303100;2023-08-06T02:25:11;2.38;;;1.90;;
7823;SDS011;3957;48.61947800;9.05303100;2023-08-06T02:26:13;2.95;;;1.55;;
7823;SDS011;3957;48.61947800;9.05303100;2023-08-06T02:27:14;2.40;;;1.83;;
7823;SDS011;3957;48.61947800;9.05303100;2023-08-06T02:28:16;4.35;;;1.52;;
7823;SDS011;3957;48.61947800;9.05303100;2023-08-06T02:29:18;1.90;;;1.70;;
7823;SDS011;3957;48.61947800;9.05303100;2023-08-06T02:30:19;2.37;;;1.50;;
7823;SDS011;3957;48.61947800;9.05303100;2023-08-06T02:31:21;5.03;;;1.80;;
7823;SDS011;3957;48.61947800;9.05303100;2023-08-06T02:32:22;2.03;;;1.40;;
7823;SDS011;3957;48.61947800;9.05303100;2023-08-06T02:33:24;3.70;;;2.10;;
7823;SDS011;3957;48.61947800;9.05303100;2023-08-06T02:34:25;3.35;;;1.80;;
7823;SDS011;3957;48.61947800;9.05303100;2023-08-06T02:35:27;3.50;;;1.88;;
7823;SDS011;3957;48.61947800;9.05303100;2023-08-06T02:36:28;3.35;;;1.63;;
7823;SDS011;3957;48.61947800;9.05303100;2023-08-06T02:37:33;2.45;;;1.67;;
7823;SDS011;3957;48.61947800;9.05303100;2023-08-06T02:38:35;4.30;;;2.10;;
7823;SDS011;3957;48.61947800;9.05303100;2023-08-06T02:39:37;2.22;;;1.67;;
7823;SDS011;3957;48.61947800;9.05303100;2023-08-06T02:40:44;4.03;;;1.80;;
7823;SDS011;3957;48.61947800;9.05303100;2023-08-06T02:41:48;2.40;;;1.83;;
7823;SDS011;3957;48.61947800;9.05303100;2023-08-06T02:42:50;3.17;;;1.90;;
7823;SDS011;3957;48.61947800;9.05303100;2023-08-06T02:43:52;1.77;;;1.67;;
7823;SDS011;3957;48.61947800;9.05303100;2023-08-06T02:44:54;4.80;;;1.77;;
7823;SDS011;3957;48.61947800;9.05303100;2023-08-06T02:45:58;3.08;;;2.05;;
7823;SDS011;3957;48.61947800;9.05303100;2023-08-06T02:47:01;3.03;;;1.60;;
7823;SDS011;3957;48.61947800;9.05303100;2023-08-06T02:48:03;3.45;;;1.98;;
7823;SDS011;3957;48.61947800;9.05303100;2023-08-06T02:49:06;1.77;;;1.38;;
7823;SDS011;3957;48.61947800;9.05303100;2023-08-06T02:50:07;3.07;;;1.90;;
7823;SDS011;3957;48.61947800;9.05303100;2023-08-06T02:51:09;2.90;;;1.63;;
7823;SDS011;3957;48.61947800;9.05303100;2023-08-06T02:52:11;2.83;;;1.90;;
7823;SDS011;3957;48.61947800;9.05303100;2023-08-06T02:53:12;3.88;;;1.75;;
7823;SDS011;3957;48.61947800;9.05303100;2023-08-06T02:54:14;3.92;;;1.80;;
7823;SDS011;3957;48.61947800;9.05303100;2023-08-06T02:55:16;2.58;;;1.60;;
7823;SDS011;3957;48.61947800;9.05303100;2023-08-06T02:56:20;4.15;;;2.08;;
7823;SDS011;3957;48.61947800;9.05303100;2023-08-06T02:57:34;5.80;;;1.77;;
7823;SDS011;3957;48.61947800;9.05303100;2023-08-06T02:58:36;2.78;;;1.63;;
7823;SDS011;3957;48.61947800;9.05303100;2023-08-06T02:59:57;2.65;;;1.70;;
7823;SDS011;3957;48.61947800;9.05303100;2023-08-06T03:02:14;3.22;;;1.77;;
7823;SDS011;3957;48.61947800;9.05303100;2023-08-06T03:03:37;2.58;;;1.60;;
7823;SDS011;3957;48.61947800;9.05303100;2023-08-06T03:04:40;3.00;;;1.73;;
7823;SDS011;3957;48.61947800;9.05303100;2023-08-06T03:05:51;2.22;;;1.48;;
7823;SDS011;3957;48.61947800;9.05303100;2023-08-06T03:06:59;1.80;;;1.60;;
7823;SDS011;3957;48.61947800;9.05303100;2023-08-06T03:08:09;3.45;;;2.10;;
7823;SDS011;3957;48.61947800;9.05303100;2023-08-06T03:09:11;2.63;;;1.75;;
7823;SDS011;3957;48.61947800;9.05303100;2023-08-06T03:10:13;2.45;;;1.70;;
7823;SDS011;3957;48.61947800;9.05303100;2023-08-06T03:11:16;2.50;;;1.63;;
7823;SDS011;3957;48.61947800;9.05303100;2023-08-06T03:12:18;3.00;;;1.67;;
7823;SDS011;3957;48.61947800;9.05303100;2023-08-06T03:13:21;2.30;;;1.73;;
7823;SDS011;3957;48.61947800;9.05303100;2023-08-06T03:14:23;4.07;;;1.67;;
7823;SDS011;3957;48.61947800;9.05303100;2023-08-06T03:15:25;2.72;;;1.60;;
7823;SDS011;3957;48.61947800;9.05303100;2023-08-06T03:16:27;2.88;;;1.98;;
7823;SDS011;3957;48.61947800;9.05303100;2023-08-06T03:17:29;3.03;;;1.50;;
7823;SDS011;3957;48.61947800;9.05303100;2023-08-06T03:18:30;2.38;;;1.60;;
7823;SDS011;3957;48.61947800;9.05303100;2023-08-06T03:19:36;2.20;;;1.55;;
7823;SDS011;3957;48.61947800;9.05303100;2023-08-06T03:20:38;2.20;;;1.70;;
7823;SDS011;3957;48.61947800;9.05303100;2023-08-06T03:21:40;2.28;;;1.42;;
7823;SDS011;3957;48.61947800;9.05303100;2023-08-06T03:22:42;4.43;;;1.80;;
7823;SDS011;3957;48.61947800;9.05303100;2023-08-06T03:23:46;2.97;;;1.40;;
7823;SDS011;3957;48.61947800;9.05303100;2023-08-06T03:24:50;2.47;;;1.65;;
7823;SDS011;3957;48.61947800;9.05303100;2023-08-06T03:25:54;2.50;;;1.63;;
7823;SDS011;3957;48.61947800;9.05303100;2023-08-06T03:26:56;5.40;;;1.75;;
7823;SDS011;3957;48.61947800;9.05303100;2023-08-06T03:27:58;3.42;;;1.58;;
7823;SDS011;3957;48.61947800;9.05303100;2023-08-06T03:29:00;2.33;;;1.40;;
7823;SDS011;3957;48.61947800;9.05303100;2023-08-06T03:30:04;2.13;;;1.70;;
7823;SDS011;3957;48.61947800;9.05303100;2023-08-06T03:31:07;2.50;;;1.60;;
7823;SDS011;3957;48.61947800;9.05303100;2023-08-06T03:32:14;1.90;;;1.50;;
7823;SDS011;3957;48.61947800;9.05303100;2023-08-06T03:33:15;2.22;;;1.60;;
7823;SDS011;3957;48.61947800;9.05303100;2023-08-06T03:34:19;2.83;;;1.90;;
7823;SDS011;3957;48.61947800;9.05303100;2023-08-06T03:35:22;2.38;;;1.50;;
7823;SDS011;3957;48.61947800;9.05303100;2023-08-06T03:36:24;2.08;;;1.88;;
7823;SDS011;3957;48.61947800;9.05303100;2023-08-06T03:37:26;1.80;;;1.30;;
7823;SDS011;3957;48.61947800;9.05303100;2023-08-06T03:38:28;2.78;;;1.70;;
7823;SDS011;3957;48.61947800;9.05303100;2023-08-06T03:39:29;3.38;;;1.52;;
7823;SDS011;3957;48.61947800;9.05303100;2023-08-06T03:40:31;2.47;;;1.52;;
7823;SDS011;3957;48.61947800;9.05303100;2023-08-06T03:41:33;1.35;;;1.25;;
7823;SDS011;3957;48.61947800;9.05303100;2023-08-06T03:42:35;2.25;;;1.50;;
7823;SDS011;3957;48.61947800;9.05303100;2023-08-06T03:43:37;2.58;;;1.70;;
7823;SDS011;3957;48.61947800;9.05303100;2023-08-06T03:44:42;3.80;;;1.50;;
7823;SDS011;3957;48.61947800;9.05303100;2023-08-06T03:45:45;3.13;;;1.50;;
7823;SDS011;3957;48.61947800;9.05303100;2023-08-06T03:46:46;7.28;;;1.55;;
7823;SDS011;3957;48.61947800;9.05303100;2023-08-06T03:47:48;2.95;;;1.65;;
7823;SDS011;3957;48.61947800;9.05303100;2023-08-06T03:48:51;3.05;;;1.35;;
7823;SDS011;3957;48.61947800;9.05303100;2023-08-06T03:49:53;4.60;;;1.60;;
7823;SDS011;3957;48.61947800;9.05303100;2023-08-06T03:50:56;1.40;;;1.30;;
7823;SDS011;3957;48.61947800;9.05303100;2023-08-06T03:51:59;4.50;;;1.45;;
7823;SDS011;3957;48.61947800;9.05303100;2023-08-06T03:53:01;2.38;;;1.40;;
7823;SDS011;3957;48.61947800;9.05303100;2023-08-06T03:54:03;2.28;;;1.33;;
7823;SDS011;3957;48.61947800;9.05303100;2023-08-06T03:55:05;2.85;;;1.50;;
7823;SDS011;3957;48.61947800;9.05303100;2023-08-06T03:56:06;1.90;;;1.33;;
7823;SDS011;3957;48.61947800;9.05303100;2023-08-06T03:57:08;1.85;;;1.20;;
7823;SDS011;3957;48.61947800;9.05303100;2023-08-06T03:58:12;3.70;;;1.70;;
7823;SDS011;3957;48.61947800;9.05303100;2023-08-06T03:59:14;2.30;;;1.33;;
7823;SDS011;3957;48.61947800;9.05303100;2023-08-06T04:00:15;3.33;;;1.55;;
7823;SDS011;3957;48.61947800;9.05303100;2023-08-06T04:01:22;3.03;;;1.23;;
7823;SDS011;3957;48.61947800;9.05303100;2023-08-06T04:02:24;2.80;;;1.70;;
7823;SDS011;3957;48.61947800;9.05303100;2023-08-06T04:03:25;5.18;;;1.55;;
7823;SDS011;3957;48.61947800;9.05303100;2023-08-06T04:04:27;7.35;;;1.85;;
7823;SDS011;3957;48.61947800;9.05303100;2023-08-06T04:05:31;1.77;;;1.30;;
7823;SDS011;3957;48.61947800;9.05303100;2023-08-06T04:06:33;2.70;;;1.45;;
7823;SDS011;3957;48.61947800;9.05303100;2023-08-06T04:07:34;1.50;;;1.40;;
7823;SDS011;3957;48.61947800;9.05303100;2023-08-06T04:08:36;4.50;;;1.77;;
7823;SDS011;3957;48.61947800;9.05303100;2023-08-06T04:09:53;2.28;;;1.50;;
7823;SDS011;3957;48.61947800;9.05303100;2023-08-06T04:10:59;1.90;;;1.25;;
7823;SDS011;3957;48.61947800;9.05303100;2023-08-06T04:12:01;2.13;;;1.60;;
7823;SDS011;3957;48.61947800;9.05303100;2023-08-06T04:13:04;2.30;;;1.33;;
7823;SDS011;3957;48.61947800;9.05303100;2023-08-06T04:14:05;1.95;;;1.52;;
7823;SDS011;3957;48.61947800;9.05303100;2023-08-06T04:15:07;1.98;;;1.20;;
7823;SDS011;3957;48.61947800;9.05303100;2023-08-06T04:16:09;4.75;;;1.65;;
7823;SDS011;3957;48.61947800;9.05303100;2023-08-06T04:17:10;2.30;;;1.30;;
7823;SDS011;3957;48.61947800;9.05303100;2023-08-06T04:18:12;3.30;;;1.58;;
7823;SDS011;3957;48.61947800;9.05303100;2023-08-06T04:19:13;1.52;;;1.25;;
7823;SDS011;3957;48.61947800;9.05303100;2023-08-06T04:20:15;4.18;;;1.42;;
7823;SDS011;3957;48.61947800;9.05303100;2023-08-06T04:21:17;2.40;;;1.40;;
7823;SDS011;3957;48.61947800;9.05303100;2023-08-06T04:22:18;1.95;;;1.40;;
7823;SDS011;3957;48.61947800;9.05303100;2023-08-06T04:23:21;2.83;;;1.50;;
7823;SDS011;3957;48.61947800;9.05303100;2023-08-06T04:24:22;3.38;;;1.30;;
7823;SDS011;3957;48.61947800;9.05303100;2023-08-06T04:25:24;1.70;;;1.15;;
7823;SDS011;3957;48.61947800;9.05303100;2023-08-06T04:26:25;2.25;;;1.30;;
7823;SDS011;3957;48.61947800;9.05303100;2023-08-06T04:27:27;2.38;;;1.30;;
7823;SDS011;3957;48.61947800;9.05303100;2023-08-06T04:28:29;1.95;;;1.63;;
7823;SDS011;3957;48.61947800;9.05303100;2023-08-06T04:29:31;3.17;;;1.35;;
7823;SDS011;3957;48.61947800;9.05303100;2023-08-06T04:30:32;1.23;;;1.13;;
7823;SDS011;3957;48.61947800;9.05303100;2023-08-06T04:31:35;2.10;;;1.50;;
7823;SDS011;3957;48.61947800;9.05303100;2023-08-06T04:32:37;2.40;;;1.65;;
7823;SDS011;3957;48.61947800;9.05303100;2023-08-06T04:33:40;3.25;;;1.20;;
7823;SDS011;3957;48.61947800;9.05303100;2023-08-06T04:34:44;1.17;;;1.05;;
7823;SDS011;3957;48.61947800;9.05303100;2023-08-06T04:35:46;1.27;;;1.02;;
7823;SDS011;3957;48.61947800;9.05303100;2023-08-06T04:36:48;2.35;;;1.30;;
7823;SDS011;3957;48.61947800;9.05303100;2023-08-06T04:37:49;2.22;;;1.20;;
7823;SDS011;3957;48.61947800;9.05303100;2023-08-06T04:38:51;1.58;;;1.15;;
7823;SDS011;3957;48.61947800;9.05303100;2023-08-06T04:39:53;2.22;;;1.30;;
7823;SDS011;3957;48.61947800;9.05303100;2023-08-06T04:40:55;3.10;;;1.15;;
7823;SDS011;3957;48.61947800;9.05303100;2023-08-06T04:41:58;2.38;;;1.08;;
7823;SDS011;3957;48.61947800;9.05303100;2023-08-06T04:43:00;3.70;;;1.10;;
7823;SDS011;3957;48.61947800;9.05303100;2023-08-06T04:44:05;4.43;;;1.30;;
7823;SDS011;3957;48.61947800;9.05303100;2023-08-06T04:45:07;3.20;;;1.40;;
7823;SDS011;3957;48.61947800;9.05303100;2023-08-06T04:46:09;2.17;;;1.30;;
7823;SDS011;3957;48.61947800;9.05303100;2023-08-06T04:47:11;2.50;;;1.33;;
7823;SDS011;3957;48.61947800;9.05303100;2023-08-06T04:48:12;1.73;;;1.02;;
7823;SDS011;3957;48.61947800;9.05303100;2023-08-06T04:49:14;1.90;;;1.20;;
7823;SDS011;3957;48.61947800;9.05303100;2023-08-06T04:50:16;1.80;;;0.98;;
7823;SDS011;3957;48.61947800;9.05303100;2023-08-06T04:51:18;2.30;;;1.20;;
7823;SDS011;3957;48.61947800;9.05303100;2023-08-06T04:52:19;1.83;;;1.20;;
7823;SDS011;3957;48.61947800;9.05303100;2023-08-06T04:53:21;1.20;;;1.10;;
7823;SDS011;3957;48.61947800;9.05303100;2023-08-06T04:54:22;2.80;;;1.17;;
7823;SDS011;3957;48.61947800;9.05303100;2023-08-06T04:55:24;1.10;;;1.00;;
7823;SDS011;3957;48.61947800;9.05303100;2023-08-06T04:56:25;2.30;;;1.10;;
7823;SDS011;3957;48.61947800;9.05303100;2023-08-06T04:57:27;1.85;;;1.02;;
7823;SDS011;3957;48.61947800;9.05303100;2023-08-06T04:58:28;2.28;;;1.20;;
7823;SDS011;3957;48.61947800;9.05303100;2023-08-06T04:59:30;1.85;;;1.20;;
7823;SDS011;3957;48.61947800;9.05303100;2023-08-06T05:00:31;1.67;;;1.00;;
7823;SDS011;3957;48.61947800;9.05303100;2023-08-06T05:01:34;1.48;;;1.30;;
7823;SDS011;3957;48.61947800;9.05303100;2023-08-06T05:02:35;0.90;;;0.82;;
7823;SDS011;3957;48.61947800;9.05303100;2023-08-06T05:03:39;3.22;;;1.05;;
7823;SDS011;3957;48.61947800;9.05303100;2023-08-06T05:04:40;1.80;;;0.90;;
7823;SDS011;3957;48.61947800;9.05303100;2023-08-06T05:05:42;2.63;;;1.00;;
7823;SDS011;3957;48.61947800;9.05303100;2023-08-06T05:06:43;2.35;;;1.00;;
7823;SDS011;3957;48.61947800;9.05303100;2023-08-06T05:07:48;2.70;;;1.10;;
7823;SDS011;3957;48.61947800;9.05303100;2023-08-06T05:08:50;2.55;;;1.08;;
7823;SDS011;3957;48.61947800;9.05303100;2023-08-06T05:09:52;1.42;;;1.10;;
7823;SDS011;3957;48.61947800;9.05303100;2023-08-06T05:10:55;4.00;;;1.00;;
7823;SDS011;3957;48.61947800;9.05303100;2023-08-06T05:11:56;1.50;;;1.10;;
7823;SDS011;3957;48.61947800;9.05303100;2023-08-06T05:12:58;1.37;;;0.87;;
7823;SDS011;3957;48.61947800;9.05303100;2023-08-06T05:13:59;2.88;;;1.10;;
7823;SDS011;3957;48.61947800;9.05303100;2023-08-06T05:15:01;1.45;;;0.80;;
7823;SDS011;3957;48.61947800;9.05303100;2023-08-06T05:16:02;2.03;;;0.90;;
7823;SDS011;3957;48.61947800;9.05303100;2023-08-06T05:17:04;1.48;;;0.90;;
7823;SDS011;3957;48.61947800;9.05303100;2023-08-06T05:18:06;1.75;;;0.73;;
7823;SDS011;3957;48.61947800;9.05303100;2023-08-06T05:19:07;0.82;;;0.70;;
7823;SDS011;3957;48.61947800;9.05303100;2023-08-06T05:20:09;2.87;;;1.00;;
7823;SDS011;3957;48.61947800;9.05303100;2023-08-06T05:21:11;2.60;;;0.85;;
7823;SDS011;3957;48.61947800;9.05303100;2023-08-06T05:22:12;1.75;;;1.05;;
7823;SDS011;3957;48.61947800;9.05303100;2023-08-06T05:23:14;1.02;;;0.70;;
7823;SDS011;3957;48.61947800;9.05303100;2023-08-06T05:24:15;1.48;;;0.73;;
7823;SDS011;3957;48.61947800;9.05303100;2023-08-06T05:25:17;0.80;;;0.60;;
7823;SDS011;3957;48.61947800;9.05303100;2023-08-06T05:26:18;2.58;;;0.63;;
7823;SDS011;3957;48.61947800;9.05303100;2023-08-06T05:27:20;0.65;;;0.65;;
7823;SDS011;3957;48.61947800;9.05303100;2023-08-06T05:28:22;3.13;;;0.80;;
7823;SDS011;3957;48.61947800;9.05303100;2023-08-06T05:29:23;0.90;;;0.70;;
7823;SDS011;3957;48.61947800;9.05303100;2023-08-06T05:30:25;0.80;;;0.80;;
7823;SDS011;3957;48.61947800;9.05303100;2023-08-06T05:31:26;2.42;;;0.60;;
7823;SDS011;3957;48.61947800;9.05303100;2023-08-06T05:32:30;1.60;;;0.80;;
7823;SDS011;3957;48.61947800;9.05303100;2023-08-06T05:33:31;1.85;;;0.80;;
7823;SDS011;3957;48.61947800;9.05303100;2023-08-06T05:34:33;0.85;;;0.80;;
7823;SDS011;3957;48.61947800;9.05303100;2023-08-06T05:35:34;1.13;;;0.70;;
7823;SDS011;3957;48.61947800;9.05303100;2023-08-06T05:36:36;1.42;;;0.70;;
7823;SDS011;3957;48.61947800;9.05303100;2023-08-06T05:37:37;1.40;;;0.70;;
7823;SDS011;3957;48.61947800;9.05303100;2023-08-06T05:38:38;2.75;;;0.88;;
7823;SDS011;3957;48.61947800;9.05303100;2023-08-06T05:39:40;2.05;;;0.90;;
7823;SDS011;3957;48.61947800;9.05303100;2023-08-06T05:40:41;0.90;;;0.68;;
7823;SDS011;3957;48.61947800;9.05303100;2023-08-06T05:41:43;2.78;;;0.80;;
7823;SDS011;3957;48.61947800;9.05303100;2023-08-06T05:42:44;1.00;;;0.82;;
7823;SDS011;3957;48.61947800;9.05303100;2023-08-06T05:43:46;2.55;;;0.80;;
7823;SDS011;3957;48.61947800;9.05303100;2023-08-06T05:44:47;1.40;;;0.70;;
7823;SDS011;3957;48.61947800;9.05303100;2023-08-06T05:45:49;2.08;;;0.82;;
7823;SDS011;3957;48.61947800;9.05303100;2023-08-06T05:46:51;2.60;;;0.90;;